sensor_id;sensor_type;location;lat;lon;timestamp;pressure;altitude;pressure_sealevel;temperature;humidity
75646;BME280;64237;52.438;13.240;2023-03-23T00:00:54;100178.84;;;10.28;75.15
75646;BME280;64237;52.438;13.240;2023-03-23T00:03:20;100169.31;;;10.19;75.00
75646;BME280;64237;52.438;13.240;2023-03-23T00:05:47;100174.59;;;10.21;76.48
75646;BME280;64237;52.438;13.240;2023-03-23T00:08:20;100149.47;;;10.22;76.07
75646;BME280;64237;52.438;13.240;2023-03-23T00:10:49;100153.75;;;10.13;76.71
75646;BME280;64237;52.438;13.240;2023-03-23T00:13:18;100145.38;;;10.08;76.41
75646;BME280;64237;52.438;13.240;2023-03-23T00:15:45;100153.34;;;10.05;76.21
75646;BME280;64237;52.438;13.240;2023-03-23T00:18:10;100151.91;;;10.02;76.83
75646;BME280;64237;52.438;13.240;2023-03-23T00:20:46;100159.63;;;10.00;77.78
75646;BME280;64237;52.438;13.240;2023-03-23T00:23:15;100152.16;;;10.01;77.49
75646;BME280;64237;52.438;13.240;2023-03-23T00:25:47;100150.75;;;9.98;76.22
75646;BME280;64237;52.438;13.240;2023-03-23T00:28:14;100146.75;;;9.89;77.83
75646;BME280;64237;52.438;13.240;2023-03-23T00:30:41;100146.75;;;9.89;77.74
75646;BME280;64237;52.438;13.240;2023-03-23T00:33:08;100142.75;;;9.80;78.11
75646;BME280;64237;52.438;13.240;2023-03-23T00:35:33;100143.09;;;9.67;78.09
75646;BME280;64237;52.438;13.240;2023-03-23T00:38:01;100139.50;;;9.66;78.19
75646;BME280;64237;52.438;13.240;2023-03-23T00:40:27;100136.50;;;9.68;78.10
75646;BME280;64237;52.438;13.240;2023-03-23T00:42:52;100122.09;;;9.66;78.45
75646;BME280;64237;52.438;13.240;2023-03-23T00:45:18;100130.88;;;9.62;79.12
75646;BME280;64237;52.438;13.240;2023-03-23T00:47:43;100122.16;;;9.54;79.22
75646;BME280;64237;52.438;13.240;2023-03-23T00:50:11;100120.78;;;9.51;79.20
75646;BME280;64237;52.438;13.240;2023-03-23T00:52:38;100115.31;;;9.56;79.01
75646;BME280;64237;52.438;13.240;2023-03-23T00:55:03;100116.34;;;9.50;79.23
75646;BME280;64237;52.438;13.240;2023-03-23T00:57:29;100105.28;;;9.50;79.41
75646;BME280;64237;52.438;13.240;2023-03-23T00:59:54;100110.63;;;9.40;79.46
75646;BME280;64237;52.438;13.240;2023-03-23T01:02:20;100106.13;;;9.34;79.78
75646;BME280;64237;52.438;13.240;2023-03-23T01:04:49;100096.69;;;9.30;79.19
75646;BME280;64237;52.438;13.240;2023-03-23T01:07:20;100095.91;;;9.35;79.36
75646;BME280;64237;52.438;13.240;2023-03-23T01:09:47;100100.59;;;9.34;79.84
75646;BME280;64237;52.438;13.240;2023-03-23T01:12:13;100103.09;;;9.19;80.22
75646;BME280;64237;52.438;13.240;2023-03-23T01:14:39;100089.06;;;9.20;80.24
75646;BME280;64237;52.438;13.240;2023-03-23T01:17:05;100097.69;;;9.24;79.85
75646;BME280;64237;52.438;13.240;2023-03-23T01:19:30;100095.06;;;9.17;79.92
75646;BME280;64237;52.438;13.240;2023-03-23T01:21:56;100098.09;;;9.16;80.11
75646;BME280;64237;52.438;13.240;2023-03-23T01:24:21;100080.34;;;9.12;80.29
75646;BME280;64237;52.438;13.240;2023-03-23T01:26:47;100085.56;;;9.08;80.53
75646;BME280;64237;52.438;13.240;2023-03-23T01:29:12;100074.69;;;9.02;80.36
75646;BME280;64237;52.438;13.240;2023-03-23T01:31:39;100078.53;;;9.01;79.81
75646;BME280;64237;52.438;13.240;2023-03-23T01:34:04;100076.84;;;9.00;80.45
75646;BME280;64237;52.438;13.240;2023-03-23T01:36:30;100079.94;;;8.86;80.71
75646;BME280;64237;52.438;13.240;2023-03-23T01:38:59;100089.88;;;8.87;81.03
75646;BME280;64237;52.438;13.240;2023-03-23T01:41:25;100093.72;;;8.86;80.96
75646;BME280;64237;52.438;13.240;2023-03-23T01:46:28;100083.84;;;8.90;81.24
75646;BME280;64237;52.438;13.240;2023-03-23T01:48:55;100071.66;;;8.86;80.91
75646;BME280;64237;52.438;13.240;2023-03-23T01:51:23;100056.50;;;8.89;80.79
75646;BME280;64237;52.438;13.240;2023-03-23T01:53:55;100063.38;;;8.86;80.90
75646;BME280;64237;52.438;13.240;2023-03-23T01:56:24;100062.22;;;8.99;80.79
75646;BME280;64237;52.438;13.240;2023-03-23T01:58:52;100054.09;;;8.92;80.95
75646;BME280;64237;52.438;13.240;2023-03-23T02:01:19;100067.16;;;8.97;80.53
75646;BME280;64237;52.438;13.240;2023-03-23T02:03:47;100066.16;;;8.86;81.00
75646;BME280;64237;52.438;13.240;2023-03-23T02:06:15;100067.72;;;8.82;81.30
75646;BME280;64237;52.438;13.240;2023-03-23T02:08:41;100052.75;;;8.78;81.69
75646;BME280;64237;52.438;13.240;2023-03-23T02:11:14;100066.63;;;8.83;80.94
75646;BME280;64237;52.438;13.240;2023-03-23T02:13:40;100061.63;;;8.80;81.53
75646;BME280;64237;52.438;13.240;2023-03-23T02:34:51;100048.94;;;9.30;80.76
75646;BME280;64237;52.438;13.240;2023-03-23T02:37:26;100059.78;;;9.36;80.00
75646;BME280;64237;52.438;13.240;2023-03-23T02:40:06;100057.59;;;9.38;80.62
75646;BME280;64237;52.438;13.240;2023-03-23T02:42:38;100058.78;;;9.42;82.00
75646;BME280;64237;52.438;13.240;2023-03-23T02:45:07;100043.38;;;9.46;83.01
75646;BME280;64237;52.438;13.240;2023-03-23T02:47:36;100045.69;;;9.54;83.32
75646;BME280;64237;52.438;13.240;2023-03-23T02:50:03;100051.16;;;9.49;84.13
75646;BME280;64237;52.438;13.240;2023-03-23T02:52:31;100042.53;;;9.46;83.75
75646;BME280;64237;52.438;13.240;2023-03-23T02:54:59;100032.66;;;9.50;84.83
75646;BME280;64237;52.438;13.240;2023-03-23T02:57:25;100039.66;;;9.57;83.65
75646;BME280;64237;52.438;13.240;2023-03-23T02:59:51;100039.66;;;9.57;83.34
75646;BME280;64237;52.438;13.240;2023-03-23T03:02:31;100032.63;;;9.67;83.26
75646;BME280;64237;52.438;13.240;2023-03-23T03:10:34;100033.28;;;9.74;82.79
75646;BME280;64237;52.438;13.240;2023-03-23T03:13:21;100028.59;;;9.74;84.62
75646;BME280;64237;52.438;13.240;2023-03-23T03:16:00;100029.69;;;9.73;83.84
75646;BME280;64237;52.438;13.240;2023-03-23T03:18:47;100030.06;;;9.82;82.22
75646;BME280;64237;52.438;13.240;2023-03-23T03:21:16;100020.50;;;9.89;80.24
75646;BME280;64237;52.438;13.240;2023-03-23T03:23:46;100036.88;;;9.96;81.61
75646;BME280;64237;52.438;13.240;2023-03-23T03:26:15;100023.53;;;9.88;82.66
75646;BME280;64237;52.438;13.240;2023-03-23T03:28:46;100024.94;;;9.90;82.50
75646;BME280;64237;52.438;13.240;2023-03-23T03:31:15;100023.53;;;9.88;82.90
75646;BME280;64237;52.438;13.240;2023-03-23T03:33:42;100033.34;;;10.01;78.97
75646;BME280;64237;52.438;13.240;2023-03-23T03:36:15;100027.03;;;10.05;81.35
75646;BME280;64237;52.438;13.240;2023-03-23T03:38:42;100023.19;;;10.06;81.58
75646;BME280;64237;52.438;13.240;2023-03-23T03:41:08;100027.56;;;10.02;82.67
75646;BME280;64237;52.438;13.240;2023-03-23T03:43:34;100022.50;;;9.94;83.49
75646;BME280;64237;52.438;13.240;2023-03-23T03:46:00;100012.53;;;9.93;84.06
75646;BME280;64237;52.438;13.240;2023-03-23T03:48:25;100009.78;;;9.93;84.47
75646;BME280;64237;52.438;13.240;2023-03-23T03:50:50;100012.47;;;9.88;85.47
75646;BME280;64237;52.438;13.240;2023-03-23T03:53:17;100009.31;;;9.79;85.07
75646;BME280;64237;52.438;13.240;2023-03-23T03:55:42;100024.03;;;9.85;85.51
75646;BME280;64237;52.438;13.240;2023-03-23T03:58:10;100028.28;;;9.71;86.63
75646;BME280;64237;52.438;13.240;2023-03-23T04:00:35;100019.16;;;9.70;87.23
75646;BME280;64237;52.438;13.240;2023-03-23T04:03:01;100021.44;;;9.78;86.50
75646;BME280;64237;52.438;13.240;2023-03-23T04:05:26;100017.00;;;9.77;87.53
75646;BME280;64237;52.438;13.240;2023-03-23T04:07:54;100021.78;;;9.82;87.02
75646;BME280;64237;52.438;13.240;2023-03-23T04:10:26;100013.94;;;9.74;87.71
75646;BME280;64237;52.438;13.240;2023-03-23T04:12:52;100014.25;;;9.77;87.42
75646;BME280;64237;52.438;13.240;2023-03-23T04:15:17;99999.31;;;9.73;87.99
75646;BME280;64237;52.438;13.240;2023-03-23T04:17:42;100012.53;;;9.71;87.56
75646;BME280;64237;52.438;13.240;2023-03-23T04:20:09;100010.88;;;9.70;87.50
75646;BME280;64237;52.438;13.240;2023-03-23T04:22:43;100016.19;;;9.77;88.09
75646;BME280;64237;52.438;13.240;2023-03-23T04:25:11;100013.28;;;9.67;88.43
75646;BME280;64237;52.438;13.240;2023-03-23T04:27:40;100007.19;;;9.65;88.23
75646;BME280;64237;52.438;13.240;2023-03-23T04:30:09;99999.91;;;9.58;89.62
75646;BME280;64237;52.438;13.240;2023-03-23T04:32:35;100000.16;;;9.57;88.85
75646;BME280;64237;52.438;13.240;2023-03-23T04:35:01;100000.00;;;9.63;88.84
75646;BME280;64237;52.438;13.240;2023-03-23T04:37:27;100002.50;;;9.65;88.43
75646;BME280;64237;52.438;13.240;2023-03-23T04:39:57;100018.22;;;9.65;88.93
75646;BME280;64237;52.438;13.240;2023-03-23T04:42:36;100023.84;;;9.70;89.64
75646;BME280;64237;52.438;13.240;2023-03-23T04:45:03;100033.63;;;9.60;89.61
75646;BME280;64237;52.438;13.240;2023-03-23T04:47:33;100042.59;;;9.68;89.60
75646;BME280;64237;52.438;13.240;2023-03-23T04:49:59;100027.94;;;9.67;89.30
75646;BME280;64237;52.438;13.240;2023-03-23T04:52:25;100038.81;;;9.74;88.40
75646;BME280;64237;52.438;13.240;2023-03-23T04:54:51;100048.03;;;9.62;88.97
75646;BME280;64237;52.438;13.240;2023-03-23T04:57:17;100056.16;;;9.69;89.55
75646;BME280;64237;52.438;13.240;2023-03-23T04:59:43;100041.34;;;9.58;89.83
75646;BME280;64237;52.438;13.240;2023-03-23T05:02:09;100044.50;;;9.67;90.13
75646;BME280;64237;52.438;13.240;2023-03-23T05:04:36;100036.66;;;9.59;90.84
75646;BME280;64237;52.438;13.240;2023-03-23T05:07:03;100039.88;;;9.51;90.83
75646;BME280;64237;52.438;13.240;2023-03-23T05:09:28;100032.41;;;9.51;92.01
75646;BME280;64237;52.438;13.240;2023-03-23T05:11:53;100033.44;;;9.45;92.06
75646;BME280;64237;52.438;13.240;2023-03-23T05:14:19;100040.72;;;9.51;90.82
75646;BME280;64237;52.438;13.240;2023-03-23T05:16:44;100042.03;;;9.49;91.72
75646;BME280;64237;52.438;13.240;2023-03-23T05:19:13;100028.28;;;9.54;91.45
75646;BME280;64237;52.438;13.240;2023-03-23T05:21:39;100036.31;;;9.55;91.47
75646;BME280;64237;52.438;13.240;2023-03-23T05:24:05;100039.34;;;9.54;91.70
75646;BME280;64237;52.438;13.240;2023-03-23T05:26:31;100039.03;;;9.50;91.82
75646;BME280;64237;52.438;13.240;2023-03-23T05:28:57;100044.34;;;9.57;91.16
75646;BME280;64237;52.438;13.240;2023-03-23T05:31:24;100043.19;;;9.53;91.00
75646;BME280;64237;52.438;13.240;2023-03-23T05:33:50;100042.44;;;9.57;91.31
75646;BME280;64237;52.438;13.240;2023-03-23T05:36:16;100049.00;;;10.34;93.28
75646;BME280;64237;52.438;13.240;2023-03-23T05:38:42;100051.28;;;10.42;88.28
75646;BME280;64237;52.438;13.240;2023-03-23T05:41:11;100054.69;;;10.05;89.06
75646;BME280;64237;52.438;13.240;2023-03-23T05:43:36;100051.25;;;9.98;90.06
75646;BME280;64237;52.438;13.240;2023-03-23T05:46:02;100050.75;;;10.01;90.02
75646;BME280;64237;52.438;13.240;2023-03-23T05:48:28;100059.50;;;9.93;90.60
75646;BME280;64237;52.438;13.240;2023-03-23T05:50:53;100060.66;;;9.97;90.70
75646;BME280;64237;52.438;13.240;2023-03-23T05:53:18;100058.97;;;9.96;90.46
75646;BME280;64237;52.438;13.240;2023-03-23T05:55:44;100055.59;;;9.89;90.65
75646;BME280;64237;52.438;13.240;2023-03-23T05:58:10;100067.34;;;10.01;89.01
75646;BME280;64237;52.438;13.240;2023-03-23T06:00:35;100067.00;;;9.97;90.89
75646;BME280;64237;52.438;13.240;2023-03-23T06:03:01;100065.66;;;10.00;91.47
75646;BME280;64237;52.438;13.240;2023-03-23T06:05:27;100065.53;;;9.90;91.86
75646;BME280;64237;52.438;13.240;2023-03-23T06:07:54;100069.72;;;9.92;92.18
75646;BME280;64237;52.438;13.240;2023-03-23T06:10:20;100065.03;;;9.93;92.13
75646;BME280;64237;52.438;13.240;2023-03-23T06:12:46;100076.09;;;9.93;91.57
75646;BME280;64237;52.438;13.240;2023-03-23T06:15:12;100078.28;;;9.91;92.20
75646;BME280;64237;52.438;13.240;2023-03-23T06:17:37;100076.34;;;9.91;93.30
75646;BME280;64237;52.438;13.240;2023-03-23T06:20:04;100077.94;;;9.87;93.68
75646;BME280;64237;52.438;13.240;2023-03-23T06:22:38;100074.16;;;9.93;93.39
75646;BME280;64237;52.438;13.240;2023-03-23T06:25:09;100074.91;;;9.89;93.24
75646;BME280;64237;52.438;13.240;2023-03-23T06:27:36;100075.50;;;9.91;93.35
75646;BME280;64237;52.438;13.240;2023-03-23T06:30:02;100077.19;;;9.92;93.16
75646;BME280;64237;52.438;13.240;2023-03-23T06:32:28;100081.91;;;9.96;92.73
75646;BME280;64237;52.438;13.240;2023-03-23T06:34:55;100078.38;;;10.01;92.82
75646;BME280;64237;52.438;13.240;2023-03-23T06:37:22;100089.94;;;9.98;93.06
75646;BME280;64237;52.438;13.240;2023-03-23T06:39:48;100080.06;;;10.02;93.50
75646;BME280;64237;52.438;13.240;2023-03-23T06:42:14;100089.50;;;10.06;92.91
75646;BME280;64237;52.438;13.240;2023-03-23T06:44:39;100077.88;;;10.04;93.00
75646;BME280;64237;52.438;13.240;2023-03-23T06:47:05;100090.69;;;10.10;93.85
75646;BME280;64237;52.438;13.240;2023-03-23T06:49:31;100085.22;;;10.15;93.86
75646;BME280;64237;52.438;13.240;2023-03-23T06:51:57;100079.69;;;10.15;92.88
75646;BME280;64237;52.438;13.240;2023-03-23T06:54:22;100089.38;;;10.18;92.83
75646;BME280;64237;52.438;13.240;2023-03-23T06:56:48;100083.56;;;10.14;92.71
75646;BME280;64237;52.438;13.240;2023-03-23T06:59:13;100086.38;;;10.19;93.02
75646;BME280;64237;52.438;13.240;2023-03-23T07:01:39;100099.13;;;10.20;92.90
75646;BME280;64237;52.438;13.240;2023-03-23T07:04:04;100097.19;;;10.21;93.02
75646;BME280;64237;52.438;13.240;2023-03-23T07:06:30;100093.09;;;10.23;92.93
75646;BME280;64237;52.438;13.240;2023-03-23T07:08:56;100096.63;;;10.19;93.43
75646;BME280;64237;52.438;13.240;2023-03-23T07:11:21;100092.94;;;10.13;93.26
75646;BME280;64237;52.438;13.240;2023-03-23T07:13:47;100085.94;;;10.27;93.86
75646;BME280;64237;52.438;13.240;2023-03-23T07:16:12;100086.03;;;10.33;92.81
75646;BME280;64237;52.438;13.240;2023-03-23T07:18:37;100070.59;;;10.63;91.73
75646;BME280;64237;52.438;13.240;2023-03-23T07:21:03;100063.09;;;10.59;91.46
75646;BME280;64237;52.438;13.240;2023-03-23T07:23:29;100074.56;;;10.46;91.92
75646;BME280;64237;52.438;13.240;2023-03-23T07:25:55;100084.94;;;10.34;92.84
75646;BME280;64237;52.438;13.240;2023-03-23T07:28:21;100088.84;;;10.38;92.97
75646;BME280;64237;52.438;13.240;2023-03-23T07:30:46;100088.88;;;10.43;93.61
75646;BME280;64237;52.438;13.240;2023-03-23T07:33:12;100095.84;;;10.45;93.59
75646;BME280;64237;52.438;13.240;2023-03-23T07:35:37;100088.69;;;10.49;92.32
75646;BME280;64237;52.438;13.240;2023-03-23T07:38:04;100065.81;;;10.54;92.71
75646;BME280;64237;52.438;13.240;2023-03-23T07:40:30;100053.31;;;10.51;93.06
75646;BME280;64237;52.438;13.240;2023-03-23T07:42:58;100048.19;;;10.60;91.64
75646;BME280;64237;52.438;13.240;2023-03-23T07:45:25;100038.81;;;10.66;91.18
75646;BME280;64237;52.438;13.240;2023-03-23T07:47:50;100040.75;;;10.65;90.08
75646;BME280;64237;52.438;13.240;2023-03-23T07:50:16;100030.75;;;10.59;91.72
75646;BME280;64237;52.438;13.240;2023-03-23T07:52:41;100010.56;;;10.64;91.14
75646;BME280;64237;52.438;13.240;2023-03-23T07:55:09;100027.50;;;10.68;91.31
75646;BME280;64237;52.438;13.240;2023-03-23T07:57:43;100038.22;;;10.64;91.91
75646;BME280;64237;52.438;13.240;2023-03-23T08:00:10;100053.16;;;10.63;91.55
75646;BME280;64237;52.438;13.240;2023-03-23T08:02:37;100065.91;;;10.64;91.13
75646;BME280;64237;52.438;13.240;2023-03-23T08:05:04;100059.75;;;10.57;92.04
75646;BME280;64237;52.438;13.240;2023-03-23T08:07:29;100070.97;;;10.72;92.11
75646;BME280;64237;52.438;13.240;2023-03-23T08:09:55;100069.88;;;10.73;93.00
75646;BME280;64237;52.438;13.240;2023-03-23T08:12:20;100077.09;;;10.74;92.01
75646;BME280;64237;52.438;13.240;2023-03-23T08:14:45;100088.72;;;10.76;91.44
75646;BME280;64237;52.438;13.240;2023-03-23T08:17:13;100081.59;;;10.80;91.74
75646;BME280;64237;52.438;13.240;2023-03-23T08:19:39;100081.03;;;10.83;92.41
75646;BME280;64237;52.438;13.240;2023-03-23T08:22:05;100088.56;;;10.88;91.82
75646;BME280;64237;52.438;13.240;2023-03-23T08:24:31;100091.25;;;10.83;91.77
75646;BME280;64237;52.438;13.240;2023-03-23T08:26:58;100096.78;;;10.83;92.53
75646;BME280;64237;52.438;13.240;2023-03-23T08:29:23;100105.38;;;10.81;92.04
75646;BME280;64237;52.438;13.240;2023-03-23T08:31:49;100093.16;;;10.77;91.52
75646;BME280;64237;52.438;13.240;2023-03-23T08:34:15;100086.03;;;10.86;90.83
75646;BME280;64237;52.438;13.240;2023-03-23T08:36:41;100086.16;;;10.96;90.13
75646;BME280;64237;52.438;13.240;2023-03-23T08:39:09;100083.13;;;10.98;90.57
75646;BME280;64237;52.438;13.240;2023-03-23T08:41:34;100065.16;;;11.01;90.75
75646;BME280;64237;52.438;13.240;2023-03-23T08:44:00;100059.66;;;11.06;89.46
75646;BME280;64237;52.438;13.240;2023-03-23T08:46:25;100092.09;;;11.10;90.69
75646;BME280;64237;52.438;13.240;2023-03-23T08:48:50;100097.09;;;11.13;90.34
75646;BME280;64237;52.438;13.240;2023-03-23T08:51:16;100100.44;;;11.15;91.07
75646;BME280;64237;52.438;13.240;2023-03-23T08:53:41;100089.19;;;11.27;90.19
75646;BME280;64237;52.438;13.240;2023-03-23T08:56:09;100096.44;;;11.33;89.37
75646;BME280;64237;52.438;13.240;2023-03-23T08:58:36;100101.78;;;11.40;89.71
75646;BME280;64237;52.438;13.240;2023-03-23T09:01:03;100093.00;;;11.53;87.24
75646;BME280;64237;52.438;13.240;2023-03-23T09:03:30;100093.59;;;11.60;88.59
75646;BME280;64237;52.438;13.240;2023-03-23T09:06:04;100101.41;;;11.63;87.93
75646;BME280;64237;52.438;13.240;2023-03-23T09:08:30;100105.56;;;11.65;87.30
75646;BME280;64237;52.438;13.240;2023-03-23T09:11:00;100111.28;;;11.54;89.21
75646;BME280;64237;52.438;13.240;2023-03-23T09:13:26;100112.06;;;11.49;88.09
75646;BME280;64237;52.438;13.240;2023-03-23T09:15:51;100105.47;;;11.55;88.71
75646;BME280;64237;52.438;13.240;2023-03-23T09:18:17;100089.97;;;11.54;88.83
75646;BME280;64237;52.438;13.240;2023-03-23T09:20:43;100088.84;;;11.55;89.31
75646;BME280;64237;52.438;13.240;2023-03-23T09:23:09;100087.28;;;11.69;87.66
75646;BME280;64237;52.438;13.240;2023-03-23T09:25:35;100095.63;;;11.75;88.37
75646;BME280;64237;52.438;13.240;2023-03-23T09:28:00;100084.09;;;11.83;88.78
75646;BME280;64237;52.438;13.240;2023-03-23T09:30:30;100095.81;;;12.00;87.67
75646;BME280;64237;52.438;13.240;2023-03-23T09:32:57;100087.00;;;12.13;88.67
75646;BME280;64237;52.438;13.240;2023-03-23T09:35:23;100088.22;;;12.27;86.07
75646;BME280;64237;52.438;13.240;2023-03-23T09:37:50;100091.06;;;12.48;83.51
75646;BME280;64237;52.438;13.240;2023-03-23T09:40:22;100087.50;;;12.62;85.95
75646;BME280;64237;52.438;13.240;2023-03-23T09:50:52;100101.69;;;12.71;83.76
75646;BME280;64237;52.438;13.240;2023-03-23T09:53:28;100106.69;;;12.74;82.65
75646;BME280;64237;52.438;13.240;2023-03-23T09:56:01;100100.03;;;12.80;82.18
75646;BME280;64237;52.438;13.240;2023-03-23T09:58:31;100096.13;;;12.81;80.69
75646;BME280;64237;52.438;13.240;2023-03-23T10:01:00;100115.00;;;12.79;79.67
75646;BME280;64237;52.438;13.240;2023-03-23T10:03:31;100111.69;;;12.77;81.01
75646;BME280;64237;52.438;13.240;2023-03-23T10:05:59;100121.66;;;12.68;80.99
75646;BME280;64237;52.438;13.240;2023-03-23T10:08:30;100107.78;;;12.68;79.58
75646;BME280;64237;52.438;13.240;2023-03-23T10:16:33;100105.56;;;12.80;80.82
75646;BME280;64237;52.438;13.240;2023-03-23T10:19:20;100098.38;;;12.84;79.16
75646;BME280;64237;52.438;13.240;2023-03-23T10:21:51;100087.28;;;12.89;78.77
75646;BME280;64237;52.438;13.240;2023-03-23T10:24:21;100094.22;;;13.02;78.87
75646;BME280;64237;52.438;13.240;2023-03-23T10:27:14;100089.25;;;13.04;78.12
75646;BME280;64237;52.438;13.240;2023-03-23T10:29:47;100089.00;;;13.26;77.69
75646;BME280;64237;52.438;13.240;2023-03-23T10:32:19;100075.69;;;13.28;75.61
75646;BME280;64237;52.438;13.240;2023-03-23T10:34:56;100074.03;;;13.37;76.20
75646;BME280;64237;52.438;13.240;2023-03-23T10:37:26;100082.88;;;13.44;75.55
75646;BME280;64237;52.438;13.240;2023-03-23T10:39:55;100090.13;;;13.45;76.54
75646;BME280;64237;52.438;13.240;2023-03-23T10:42:29;100089.00;;;13.51;75.21
75646;BME280;64237;52.438;13.240;2023-03-23T10:44:58;100090.13;;;13.55;75.86
75646;BME280;64237;52.438;13.240;2023-03-23T10:47:24;100081.22;;;13.43;76.05
75646;BME280;64237;52.438;13.240;2023-03-23T10:49:56;100085.41;;;13.46;75.42
75646;BME280;64237;52.438;13.240;2023-03-23T10:52:40;100074.03;;;13.42;74.28
75646;BME280;64237;52.438;13.240;2023-03-23T10:55:15;100078.19;;;13.40;75.74
75646;BME280;64237;52.438;13.240;2023-03-23T10:57:45;100087.91;;;13.37;75.20
75646;BME280;64237;52.438;13.240;2023-03-23T11:07:59;100085.13;;;13.52;74.59
75646;BME280;64237;52.438;13.240;2023-03-23T11:10:47;100097.34;;;13.56;74.71
75646;BME280;64237;52.438;13.240;2023-03-23T11:13:15;100095.69;;;13.60;72.85
75646;BME280;64237;52.438;13.240;2023-03-23T11:15:42;100088.19;;;13.61;71.86
75646;BME280;64237;52.438;13.240;2023-03-23T11:18:10;100100.69;;;13.63;71.85
75646;BME280;64237;52.438;13.240;2023-03-23T11:20:39;100096.53;;;13.61;71.27
75646;BME280;64237;52.438;13.240;2023-03-23T11:23:23;100091.22;;;13.69;70.28
75646;BME280;64237;52.438;13.240;2023-03-23T11:29:15;100090.91;;;13.86;69.75
75646;BME280;64237;52.438;13.240;2023-03-23T11:32:02;100103.13;;;14.00;71.76
75646;BME280;64237;52.438;13.240;2023-03-23T11:37:11;100106.41;;;14.07;69.80
75646;BME280;64237;52.438;13.240;2023-03-23T11:42:23;100112.47;;;14.30;70.19
75646;BME280;64237;52.438;13.240;2023-03-23T11:44:53;100106.13;;;14.24;69.04
75646;BME280;64237;52.438;13.240;2023-03-23T11:47:37;100111.06;;;14.32;68.56
75646;BME280;64237;52.438;13.240;2023-03-23T11:52:43;100101.59;;;14.38;69.04
75646;BME280;64237;52.438;13.240;2023-03-23T11:55:14;100114.97;;;14.42;68.28
75646;BME280;64237;52.438;13.240;2023-03-23T11:57:40;100115.75;;;14.52;68.78
75646;BME280;64237;52.438;13.240;2023-03-23T12:00:33;100099.88;;;14.53;66.74
75646;BME280;64237;52.438;13.240;2023-03-23T12:03:25;100112.41;;;14.55;66.37
75646;BME280;64237;52.438;13.240;2023-03-23T12:06:05;100114.91;;;14.62;67.69
75646;BME280;64237;52.438;13.240;2023-03-23T12:08:49;100123.78;;;14.64;66.88
75646;BME280;64237;52.438;13.240;2023-03-23T12:16:57;100112.66;;;14.64;65.35
75646;BME280;64237;52.438;13.240;2023-03-23T12:25:03;100107.63;;;14.66;65.40
75646;BME280;64237;52.438;13.240;2023-03-23T12:30:29;100098.72;;;14.69;64.94
75646;BME280;64237;52.438;13.240;2023-03-23T12:38:25;100097.00;;;14.73;66.13
75646;BME280;64237;52.438;13.240;2023-03-23T12:43:53;100086.38;;;14.80;64.11
75646;BME280;64237;52.438;13.240;2023-03-23T12:46:37;100080.22;;;14.88;63.92
75646;BME280;64237;52.438;13.240;2023-03-23T12:51:57;100037.53;;;14.98;62.98
75646;BME280;64237;52.438;13.240;2023-03-23T12:57:12;100068.63;;;15.44;62.89
75646;BME280;64237;52.438;13.240;2023-03-23T13:05:32;100079.44;;;15.85;59.72
75646;BME280;64237;52.438;13.240;2023-03-23T13:08:31;100086.41;;;16.11;61.59
75646;BME280;64237;52.438;13.240;2023-03-23T13:11:03;100077.25;;;16.29;59.36
75646;BME280;64237;52.438;13.240;2023-03-23T13:13:45;100080.72;;;16.21;58.44
75646;BME280;64237;52.438;13.240;2023-03-23T13:16:21;100095.84;;;16.15;59.38
75646;BME280;64237;52.438;13.240;2023-03-23T13:19:03;100085.72;;;16.00;59.30
75646;BME280;64237;52.438;13.240;2023-03-23T13:21:40;100082.97;;;15.95;58.30
75646;BME280;64237;52.438;13.240;2023-03-23T13:24:09;100069.78;;;16.01;59.89
75646;BME280;64237;52.438;13.240;2023-03-23T13:26:40;100068.13;;;16.00;63.63
75646;BME280;64237;52.438;13.240;2023-03-23T13:31:40;100071.59;;;15.87;58.20
75646;BME280;64237;52.438;13.240;2023-03-23T13:37:11;100056.56;;;15.83;56.70
75646;BME280;64237;52.438;13.240;2023-03-23T13:39:50;100048.06;;;15.98;56.11
75646;BME280;64237;52.438;13.240;2023-03-23T13:42:21;100041.66;;;15.97;57.11
75646;BME280;64237;52.438;13.240;2023-03-23T13:49:55;100027.84;;;16.06;52.98
75646;BME280;64237;52.438;13.240;2023-03-23T13:57:58;100032.59;;;16.29;54.74
75646;BME280;64237;52.438;13.240;2023-03-23T14:00:45;100036.75;;;16.32;53.20
75646;BME280;64237;52.438;13.240;2023-03-23T14:03:24;100037.59;;;16.32;55.15
75646;BME280;64237;52.438;13.240;2023-03-23T14:10:55;100062.75;;;16.27;53.15
75646;BME280;64237;52.438;13.240;2023-03-23T14:13:37;100055.25;;;16.70;54.89
75646;BME280;64237;52.438;13.240;2023-03-23T14:16:13;100050.16;;;16.54;54.28
75646;BME280;64237;52.438;13.240;2023-03-23T14:18:41;100055.22;;;16.04;57.25
75646;BME280;64237;52.438;13.240;2023-03-23T14:21:15;100056.56;;;15.83;56.74
75646;BME280;64237;52.438;13.240;2023-03-23T14:23:41;100045.72;;;15.57;56.06
75646;BME280;64237;52.438;13.240;2023-03-23T14:26:12;100038.22;;;15.48;58.52
75646;BME280;64237;52.438;13.240;2023-03-23T14:28:43;100058.13;;;15.36;56.60
75646;BME280;64237;52.438;13.240;2023-03-23T14:31:19;100057.69;;;15.19;58.10
75646;BME280;64237;52.438;13.240;2023-03-23T14:33:45;100060.00;;;15.12;58.74
75646;BME280;64237;52.438;13.240;2023-03-23T14:36:11;100055.59;;;15.05;59.42
75646;BME280;64237;52.438;13.240;2023-03-23T14:38:36;100066.28;;;14.93;62.00
75646;BME280;64237;52.438;13.240;2023-03-23T14:41:04;100061.31;;;14.80;66.94
75646;BME280;64237;52.438;13.240;2023-03-23T14:43:32;100051.44;;;14.54;66.32
75646;BME280;64237;52.438;13.240;2023-03-23T14:46:01;100058.22;;;14.43;65.66
75646;BME280;64237;52.438;13.240;2023-03-23T14:48:27;100054.22;;;14.59;65.59